Time;durP1;ratioP1;P1;durP2;ratioP2;P2;SDS_P1;SDS_P2;PMS_P1;PMS_P2;Temp;Humidity;BMP_temperature;BMP_pressure;BME280_temperature;BME280_humidity;BME280_pressure;Samples;Min_cycle;Max_cycle;Signal;HPM_P1;HPM_P2
2021/08/11 00:01:35;;;;;;;17.67;12.93;;;14.40;92.10;;;;;;5052961;28;20279;-89
2021/08/11 00:04:01;;;;;;;21.33;13.90;;;14.40;92.10;;;;;;5054540;28;20658;-89
2021/08/11 00:06:27;;;;;;;15.90;12.13;;;14.50;92.10;;;;;;5054159;28;20255;-89
2021/08/11 00:08:52;;;;;;;26.87;13.47;;;14.50;91.90;;;;;;5054029;28;20168;-88
2021/08/11 00:11:18;;;;;;;19.07;13.00;;;14.40;91.70;;;;;;5053133;28;20215;-87
2021/08/11 00:13:44;;;;;;;16.30;13.00;;;14.40;91.80;;;;;;5054018;28;20176;-89
2021/08/11 00:16:10;;;;;;;16.43;13.50;;;14.40;91.90;;;;;;5052771;28;20535;-90
2021/08/11 00:18:36;;;;;;;25.20;12.80;;;14.50;91.80;;;;;;5051864;28;20233;-89
2021/08/11 00:21:03;;;;;;;23.90;12.80;;;14.50;91.80;;;;;;5052907;28;20203;-89
2021/08/11 00:23:29;;;;;;;24.07;13.07;;;14.50;91.70;;;;;;5053867;28;20176;-89
2021/08/11 00:25:55;;;;;;;23.70;12.13;;;14.50;91.50;;;;;;5053847;28;20207;-89
2021/08/11 00:28:21;;;;;;;15.27;12.07;;;14.40;91.50;;;;;;5053765;28;20231;-89
2021/08/11 00:30:48;;;;;;;25.30;14.37;;;14.40;91.50;;;;;;5052339;28;20336;-88
2021/08/11 00:33:13;;;;;;;20.53;13.73;;;14.20;91.80;;;;;;5053619;28;20181;-88
2021/08/11 00:35:39;;;;;;;23.10;14.43;;;14.20;92.00;;;;;;5053601;28;20180;-89
2021/08/11 00:38:05;;;;;;;22.20;14.97;;;14.20;92.00;;;;;;5052659;28;20187;-89
2021/08/11 00:40:32;;;;;;;17.00;13.87;;;14.30;92.10;;;;;;5052282;28;20203;-88
2021/08/11 00:43:04;;;;;;;23.27;15.20;;;14.20;92.00;;;;;;5052284;28;20214;-88
2021/08/11 00:45:29;;;;;;;21.47;14.43;;;14.20;92.10;;;;;;5052938;28;20176;-88
2021/08/11 00:47:55;;;;;;;20.97;13.87;;;14.20;92.20;;;;;;5053451;28;20180;-89
2021/08/11 00:50:21;;;;;;;20.47;13.97;;;14.10;92.10;;;;;;5052109;28;20249;-88
2021/08/11 00:52:47;;;;;;;22.53;14.27;;;14.10;92.00;;;;;;5052172;28;20200;-88
2021/08/11 00:55:15;;;;;;;21.93;12.77;;;14.10;92.20;;;;;;5052157;28;20586;-88
2021/08/11 00:57:42;;;;;;;16.37;12.63;;;14.20;92.10;;;;;;5053574;28;20222;-88
2021/08/11 01:00:09;;;;;;;17.70;13.00;;;14.20;91.90;;;;;;5052404;28;20231;-90
2021/08/11 01:02:37;;;;;;;16.90;12.47;;;14.00;91.80;;;;;;5053320;28;20176;-90
2021/08/11 01:05:03;;;;;;;16.57;12.70;;;14.10;91.90;;;;;;5052036;28;20187;-90
2021/08/11 01:07:31;;;;;;;18.80;12.60;;;14.20;91.80;;;;;;5053214;28;20175;-90
2021/08/11 01:09:57;;;;;;;20.67;13.17;;;14.00;91.50;;;;;;5052043;28;20609;-89
2021/08/11 01:12:25;;;;;;;23.23;12.27;;;14.00;91.60;;;;;;5053108;28;20200;-90
2021/08/11 01:14:51;;;;;;;22.80;11.80;;;14.00;91.60;;;;;;5051919;28;20187;-89
2021/08/11 01:17:19;;;;;;;16.97;10.43;;;14.10;91.70;;;;;;5053120;28;20174;-89
2021/08/11 01:19:45;;;;;;;15.97;10.40;;;14.20;91.50;;;;;;5053034;28;20192;-89
2021/08/11 01:22:39;;;;;;;19.97;9.93;;;14.20;91.30;;;;;;5053310;28;20262;-89
2021/08/11 01:25:08;;;;;;;25.83;11.20;;;14.20;91.10;;;;;;5051823;28;20184;-89
2021/08/11 01:28:08;;;;;;;19.30;11.27;;;14.10;91.00;;;;;;5052578;28;20274;-89
2021/08/11 01:31:03;;;;;;;20.50;11.53;;;14.00;91.20;;;;;;5055566;28;20227;-88
2021/08/11 01:33:59;;;;;;;15.13;12.30;;;13.90;91.40;;;;;;5056256;28;20628;-88
2021/08/11 01:36:47;;;;;;;17.13;14.57;;;13.90;91.60;;;;;;5056178;28;20251;-88
2021/08/11 01:39:22;;;;;;;20.23;15.60;;;13.90;91.90;;;;;;5055740;28;20192;-88
2021/08/11 01:41:56;;;;;;;29.87;15.50;;;13.90;92.00;;;;;;5055783;28;20170;-88
2021/08/11 01:44:26;;;;;;;31.57;20.13;;;13.80;91.60;;;;;;5056788;28;20652;-88
2021/08/11 01:46:53;;;;;;;24.03;15.47;;;13.80;91.80;;;;;;5055688;28;20191;-88
2021/08/11 01:49:22;;;;;;;21.17;13.37;;;13.80;91.70;;;;;;5056835;28;20687;-87
2021/08/11 01:51:48;;;;;;;21.43;13.03;;;13.80;91.70;;;;;;5055567;28;20289;-88
2021/08/11 01:54:15;;;;;;;23.00;13.13;;;13.80;91.50;;;;;;5055596;28;20180;-88
2021/08/11 01:56:43;;;;;;;30.77;15.43;;;13.80;91.50;;;;;;5057039;28;20182;-88
2021/08/11 01:59:10;;;;;;;23.33;14.20;;;13.70;91.60;;;;;;5055482;28;20635;-88
2021/08/11 02:01:41;;;;;;;20.93;12.90;;;13.70;91.90;;;;;;5055362;28;20681;-89
2021/08/11 02:04:08;;;;;;;16.40;12.00;;;13.80;91.80;;;;;;5055459;28;20172;-88
2021/08/11 02:06:36;;;;;;;16.70;12.07;;;13.80;91.60;;;;;;5055230;28;20190;-88
2021/08/11 02:09:03;;;;;;;17.07;11.73;;;13.80;91.60;;;;;;5055096;28;20630;-88
2021/08/11 02:11:28;;;;;;;22.80;11.73;;;13.80;91.40;;;;;;5055186;28;20196;-88
2021/08/11 02:13:56;;;;;;;20.67;12.43;;;13.80;91.20;;;;;;5055097;28;20176;-88
2021/08/11 02:16:22;;;;;;;20.03;12.37;;;13.70;91.30;;;;;;5056284;28;20168;-88
2021/08/11 02:18:47;;;;;;;21.33;13.17;;;13.80;91.40;;;;;;5055301;28;20229;-88
2021/08/11 02:21:13;;;;;;;25.87;11.93;;;13.80;91.30;;;;;;5055194;28;20664;-88
2021/08/11 02:23:40;;;;;;;14.77;11.33;;;13.80;91.20;;;;;;5056069;28;20176;-89
2021/08/11 02:26:22;;;;;;;18.87;13.50;;;13.90;91.10;;;;;;5054849;28;20184;-88
2021/08/11 02:28:55;;;;;;;23.13;13.00;;;13.80;91.20;;;;;;5056151;28;20170;-88
2021/08/11 02:31:48;;;;;;;22.83;13.40;;;13.70;91.50;;;;;;5056217;28;20267;-88
2021/08/11 02:34:37;;;;;;;17.50;12.97;;;13.70;91.40;;;;;;5055879;28;20176;-88
2021/08/11 02:37:11;;;;;;;15.30;13.63;;;13.70;91.50;;;;;;5054630;28;20161;-88
2021/08/11 02:40:00;;;;;;;18.63;13.37;;;13.70;91.50;;;;;;5055141;28;20226;-88
2021/08/11 02:42:30;;;;;;;26.50;15.33;;;13.70;91.70;;;;;;5054003;28;20172;-88
2021/08/11 02:45:00;;;;;;;17.07;13.43;;;13.70;91.90;;;;;;5054544;28;20165;-88
2021/08/11 02:47:27;;;;;;;28.00;16.97;;;13.70;92.20;;;;;;5054968;28;20180;-88
2021/08/11 02:49:54;;;;;;;22.27;17.00;;;13.70;92.50;;;;;;5054434;28;20555;-88
2021/08/11 02:52:20;;;;;;;23.87;17.17;;;13.60;92.30;;;;;;5054820;28;20278;-88
2021/08/11 02:54:46;;;;;;;28.73;18.47;;;13.70;92.40;;;;;;5055517;28;20165;-88
2021/08/11 02:57:12;;;;;;;29.13;19.47;;;13.70;92.70;;;;;;5054611;28;20179;-88
2021/08/11 02:59:39;;;;;;;23.50;17.57;;;13.70;92.80;;;;;;5054222;28;20199;-88
2021/08/11 03:02:06;;;;;;;33.83;19.83;;;13.70;93.00;;;;;;5055734;28;20187;-89
2021/08/11 03:04:32;;;;;;;33.50;20.70;;;13.70;93.10;;;;;;5055726;28;20632;-88
2021/08/11 03:06:58;;;;;;;37.03;21.17;;;13.80;93.10;;;;;;5054164;28;20180;-88
2021/08/11 03:09:24;;;;;;;31.27;20.17;;;13.80;93.20;;;;;;5054355;28;20265;-88
2021/08/11 03:11:50;;;;;;;32.83;21.43;;;13.80;93.30;;;;;;5053973;28;20200;-88
2021/08/11 03:14:16;;;;;;;34.43;20.90;;;13.80;93.20;;;;;;5053980;28;20183;-88
2021/08/11 03:16:42;;;;;;;30.90;20.60;;;13.80;93.20;;;;;;5054736;28;20176;-88
2021/08/11 03:19:08;;;;;;;27.43;18.67;;;13.80;93.20;;;;;;5053856;28;20200;-88
2021/08/11 03:21:35;;;;;;;29.93;20.60;;;13.80;93.10;;;;;;5055064;28;20709;-88
2021/08/11 03:24:01;;;;;;;41.67;21.87;;;13.80;93.10;;;;;;5053835;28;20715;-88
2021/08/11 03:26:27;;;;;;;37.23;21.63;;;13.80;93.00;;;;;;5054977;28;20172;-88
2021/08/11 03:28:58;;;;;;;32.97;21.57;;;13.80;93.10;;;;;;5054755;28;20179;-88
2021/08/11 03:31:28;;;;;;;28.33;19.43;;;13.80;93.10;;;;;;5095925;23;20234;-90
2021/08/11 03:33:54;;;;;;;28.47;19.17;;;13.80;93.10;;;;;;5075022;28;20278;-90
2021/08/11 03:36:19;;;;;;;26.40;19.30;;;13.80;93.00;;;;;;5056884;28;20167;-89
2021/08/11 03:38:45;;;;;;;25.60;20.10;;;13.80;92.90;;;;;;5057334;28;20179;-90
2021/08/11 03:41:11;;;;;;;25.20;18.60;;;13.70;93.00;;;;;;5056977;28;20683;-89
2021/08/11 03:43:36;;;;;;;30.17;17.67;;;13.70;93.10;;;;;;5057487;28;20178;-89
2021/08/11 03:46:02;;;;;;;24.83;16.83;;;13.70;93.10;;;;;;5056641;28;20175;-89
2021/08/11 03:48:28;;;;;;;26.13;16.83;;;13.70;93.00;;;;;;5056583;28;20195;-89
2021/08/11 03:50:53;;;;;;;25.67;17.80;;;13.70;92.90;;;;;;5056959;28;20724;-89
2021/08/11 03:53:19;;;;;;;24.67;16.93;;;13.60;92.80;;;;;;5057566;28;20269;-90
2021/08/11 03:55:44;;;;;;;21.93;16.70;;;13.70;92.80;;;;;;5056378;28;20547;-89
2021/08/11 03:58:10;;;;;;;25.97;15.77;;;13.70;92.80;;;;;;5056522;28;20182;-89
2021/08/11 04:00:36;;;;;;;22.17;14.90;;;13.70;92.70;;;;;;5056306;28;20618;-89
2021/08/11 04:03:02;;;;;;;21.03;14.70;;;13.70;92.70;;;;;;5074129;28;20254;-89
2021/08/11 04:05:27;;;;;;;18.37;13.93;;;13.80;92.60;;;;;;5074043;28;20179;-89
2021/08/11 04:07:53;;;;;;;32.60;13.07;;;13.80;92.40;;;;;;5056324;28;20267;-89
2021/08/11 04:10:19;;;;;;;18.70;12.30;;;13.70;92.20;;;;;;5056378;28;20248;-89
2021/08/11 04:12:44;;;;;;;22.43;11.93;;;13.60;91.60;;;;;;5056090;28;20623;-89
2021/08/11 04:15:10;;;;;;;15.90;11.33;;;13.50;91.50;;;;;;5056039;28;20182;-89
2021/08/11 04:17:36;;;;;;;17.27;11.10;;;13.50;91.60;;;;;;5056246;28;20643;-90
2021/08/11 04:20:04;;;;;;;19.53;11.03;;;13.60;91.70;;;;;;5055857;28;20203;-89
2021/08/11 04:22:29;;;;;;;18.03;10.23;;;13.50;91.70;;;;;;5073702;28;20175;-89
2021/08/11 04:24:55;;;;;;;18.23;10.23;;;13.50;91.50;;;;;;5055852;28;20179;-89
2021/08/11 04:27:21;;;;;;;12.97;9.30;;;13.50;91.10;;;;;;5055856;28;20229;-89
2021/08/11 04:29:46;;;;;;;14.90;11.20;;;13.60;91.10;;;;;;5055592;28;20231;-89
2021/08/11 04:32:12;;;;;;;17.47;12.63;;;13.60;90.90;;;;;;5055714;28;20199;-89
2021/08/11 04:34:38;;;;;;;20.33;15.43;;;13.50;91.40;;;;;;5055830;28;20179;-89
2021/08/11 04:37:05;;;;;;;22.83;15.67;;;13.50;91.80;;;;;;5056636;28;20658;-89
2021/08/11 04:39:31;;;;;;;21.37;15.47;;;13.50;92.20;;;;;;5055670;28;20670;-89
2021/08/11 04:41:56;;;;;;;24.13;16.60;;;13.40;92.20;;;;;;5073548;28;20183;-89
2021/08/11 04:44:22;;;;;;;24.10;16.27;;;13.40;92.40;;;;;;5073515;28;20175;-89
2021/08/11 04:46:48;;;;;;;24.93;17.40;;;13.30;92.50;;;;;;5055613;28;20263;-89
2021/08/11 04:49:13;;;;;;;29.17;20.13;;;13.30;92.80;;;;;;5055610;28;20187;-89
2021/08/11 04:51:39;;;;;;;28.20;18.37;;;13.40;93.10;;;;;;5055393;28;20214;-89
2021/08/11 04:54:05;;;;;;;28.63;19.67;;;13.50;93.40;;;;;;5073381;28;20572;-89
2021/08/11 04:56:30;;;;;;;29.00;19.90;;;13.60;93.60;;;;;;5055842;28;20175;-89
2021/08/11 04:58:56;;;;;;;33.37;20.87;;;13.60;93.70;;;;;;5073334;28;20273;-89
2021/08/11 05:01:21;;;;;;;31.97;20.93;;;13.70;93.80;;;;;;5055327;28;20203;-89
2021/08/11 05:03:47;;;;;;;33.67;21.87;;;13.70;93.80;;;;;;5072774;28;20206;-89
2021/08/11 05:06:13;;;;;;;32.17;21.20;;;13.80;93.80;;;;;;5055673;28;20183;-89
2021/08/11 05:08:39;;;;;;;30.30;22.10;;;13.80;93.80;;;;;;5055685;28;20232;-89
2021/08/11 05:11:05;;;;;;;37.77;22.07;;;13.80;93.90;;;;;;5055388;28;20248;-89
2021/08/11 05:13:31;;;;;;;33.37;23.60;;;13.90;93.90;;;;;;5055462;28;20203;-89
2021/08/11 05:15:57;;;;;;;39.17;24.30;;;13.90;94.00;;;;;;5055517;28;20578;-89
2021/08/11 05:18:23;;;;;;;35.90;23.97;;;14.00;94.00;;;;;;5055412;28;20654;-89
2021/08/11 05:20:49;;;;;;;34.07;23.40;;;14.10;94.00;;;;;;5055412;28;20199;-89
2021/08/11 05:23:15;;;;;;;37.20;22.93;;;14.10;94.00;;;;;;5055592;28;20183;-89
2021/08/11 05:25:43;;;;;;;33.17;20.97;;;14.20;93.90;;;;;;5055457;28;20179;-89
2021/08/11 05:28:09;;;;;;;32.87;20.67;;;14.30;93.90;;;;;;5055478;28;20179;-89
2021/08/11 05:30:36;;;;;;;36.47;22.77;;;14.30;93.80;;;;;;5054855;28;20221;-89
2021/08/11 05:33:02;;;;;;;35.03;22.87;;;14.40;93.70;;;;;;5055333;28;20203;-90
2021/08/11 05:35:27;;;;;;;33.53;22.10;;;14.50;93.60;;;;;;5055119;28;20186;-89
2021/08/11 05:37:53;;;;;;;32.03;21.43;;;14.60;93.50;;;;;;5055143;28;20658;-89
2021/08/11 05:40:19;;;;;;;30.07;19.63;;;14.60;93.10;;;;;;5055317;28;20202;-89
2021/08/11 05:42:45;;;;;;;29.07;21.13;;;14.50;92.90;;;;;;5054955;28;20275;-89
2021/08/11 05:45:11;;;;;;;30.53;20.00;;;14.50;92.90;;;;;;5055004;28;20183;-89
2021/08/11 05:47:37;;;;;;;26.73;19.97;;;14.70;92.90;;;;;;5054862;28;20194;-89
2021/08/11 05:50:04;;;;;;;26.77;21.30;;;14.60;92.80;;;;;;5054903;28;20230;-89
2021/08/11 05:52:29;;;;;;;26.83;21.43;;;14.80;92.90;;;;;;5055091;28;20209;-89
2021/08/11 05:54:55;;;;;;;32.23;20.60;;;14.80;92.80;;;;;;5055227;28;20272;-89
2021/08/11 05:57:21;;;;;;;28.83;21.27;;;14.90;92.90;;;;;;5055169;28;20190;-89
2021/08/11 05:59:48;;;;;;;35.03;22.50;;;15.00;93.00;;;;;;5054834;28;20203;-89
2021/08/11 06:02:13;;;;;;;29.40;21.97;;;14.90;93.00;;;;;;5072761;28;20167;-90
2021/08/11 06:04:39;;;;;;;33.43;22.70;;;15.00;93.20;;;;;;5054931;28;20262;-89
2021/08/11 06:07:05;;;;;;;31.17;24.67;;;15.10;93.30;;;;;;5055194;28;20602;-89
2021/08/11 06:09:30;;;;;;;31.17;23.17;;;15.00;93.20;;;;;;5054678;28;20205;-89
2021/08/11 06:11:56;;;;;;;30.77;21.90;;;15.10;93.10;;;;;;5054701;28;20207;-89
2021/08/11 06:14:22;;;;;;;33.63;23.50;;;15.20;93.10;;;;;;5055029;28;20274;-89
2021/08/11 06:16:47;;;;;;;27.40;21.00;;;15.20;92.70;;;;;;5074688;28;20254;-89
2021/08/11 06:19:13;;;;;;;31.77;20.77;;;15.20;92.40;;;;;;5058325;28;20183;-89
2021/08/11 06:21:39;;;;;;;29.10;20.00;;;15.30;92.40;;;;;;5058082;28;20679;-89
2021/08/11 06:24:05;;;;;;;28.40;20.03;;;15.40;92.40;;;;;;5076059;28;20651;-89
2021/08/11 06:26:31;;;;;;;29.67;18.67;;;15.40;92.20;;;;;;5058289;28;20647;-89
2021/08/11 06:28:57;;;;;;;26.33;18.53;;;15.40;91.80;;;;;;5058140;28;20659;-89
2021/08/11 06:31:24;;;;;;;28.77;18.90;;;15.50;91.40;;;;;;5057902;28;20245;-89
2021/08/11 06:33:53;;;;;;;35.97;20.03;;;15.60;91.90;;;;;;5075933;28;20171;-89
2021/08/11 06:36:20;;;;;;;28.45;19.70;;;15.70;92.20;;;;;;5058002;28;20643;-89
2021/08/11 06:38:47;;;;;;;31.63;18.15;;;15.70;91.90;;;;;;5057926;28;20186;-89
2021/08/11 06:41:15;;;;;;;30.03;19.17;;;15.70;91.80;;;;;;5057810;28;20191;-89
2021/08/11 06:43:42;;;;;;;24.35;17.00;;;15.80;91.70;;;;;;5057765;28;20266;-89
2021/08/11 06:46:08;;;;;;;26.83;18.40;;;15.80;91.40;;;;;;5058101;28;20182;-89
2021/08/11 06:48:38;;;;;;;33.23;20.57;;;15.90;91.60;;;;;;5057616;28;20210;-89
2021/08/11 06:51:05;;;;;;;26.95;17.75;;;15.90;91.10;;;;;;5075897;28;20214;-89
2021/08/11 06:53:31;;;;;;;24.27;18.77;;;16.00;90.90;;;;;;5057688;28;20655;-89
2021/08/11 06:55:57;;;;;;;19.58;16.48;;;16.00;90.50;;;;;;5058000;28;20171;-90
2021/08/11 06:58:22;;;;;;;23.40;18.73;;;16.10;90.30;;;;;;5057956;28;20174;-89
2021/08/11 07:00:52;;;;;;;24.90;17.38;;;16.20;90.80;;;;;;5058079;28;20234;-89
2021/08/11 07:03:19;;;;;;;23.90;17.05;;;16.30;89.90;;;;;;5041388;28;20192;-89
2021/08/11 07:05:45;;;;;;;24.42;18.40;;;16.30;90.20;;;;;;5057803;28;20266;-89
2021/08/11 07:08:22;;;;;;;21.73;14.95;;;16.40;90.20;;;;;;5075864;28;20198;-89
2021/08/11 07:10:49;;;;;;;24.55;14.68;;;16.30;89.30;;;;;;5075476;28;20658;-89
2021/08/11 07:13:19;;;;;;;22.50;13.80;;;16.30;88.90;;;;;;5057185;28;20249;-89
2021/08/11 07:15:45;;;;;;;22.38;14.45;;;16.50;89.00;;;;;;5057266;28;20168;-89
2021/08/11 07:18:15;;;;;;;23.23;14.50;;;16.50;89.20;;;;;;5057154;28;20255;-89
2021/08/11 07:20:41;;;;;;;20.67;14.18;;;16.60;88.90;;;;;;5058083;28;20215;-90
2021/08/11 07:23:06;;;;;;;22.52;15.52;;;16.70;88.80;;;;;;5057135;28;20237;-90
2021/08/11 07:25:32;;;;;;;22.88;15.73;;;16.60;89.00;;;;;;5057133;28;20237;-89
2021/08/11 07:27:58;;;;;;;23.17;15.07;;;16.70;89.20;;;;;;5074476;28;20175;-89
2021/08/11 07:30:24;;;;;;;23.20;14.70;;;16.80;89.20;;;;;;5075024;28;20285;-90
2021/08/11 07:32:49;;;;;;;20.65;14.65;;;16.70;88.00;;;;;;5056925;28;20316;-90
2021/08/11 07:35:15;;;;;;;20.48;14.80;;;16.80;89.00;;;;;;5075079;28;20631;-89
2021/08/11 07:37:49;;;;;;;16.17;12.30;;;16.90;88.90;;;;;;5057960;28;20531;-90
2021/08/11 07:40:15;;;;;;;17.92;12.98;;;16.90;88.50;;;;;;5057236;28;20194;-90
2021/08/11 07:42:42;;;;;;;19.10;11.85;;;17.10;88.30;;;;;;5074549;28;20183;-89
2021/08/11 07:45:10;;;;;;;16.52;10.18;;;17.10;87.80;;;;;;5056610;28;20183;-89
2021/08/11 07:47:36;;;;;;;17.38;11.90;;;17.20;86.50;;;;;;5056578;28;20172;-89
2021/08/11 07:50:02;;;;;;;15.95;11.13;;;17.10;87.20;;;;;;5057171;28;20195;-89
2021/08/11 07:52:27;;;;;;;13.23;10.57;;;17.10;87.70;;;;;;5056362;28;20203;-89
2021/08/11 07:54:53;;;;;;;14.40;10.25;;;17.20;87.90;;;;;;5056871;28;20313;-89
2021/08/11 07:57:19;;;;;;;15.73;11.00;;;17.20;86.30;;;;;;5074344;28;20224;-89
2021/08/11 07:59:44;;;;;;;18.92;10.45;;;17.20;87.30;;;;;;5056548;28;20191;-89
2021/08/11 08:02:11;;;;;;;18.25;9.32;;;17.40;86.00;;;;;;5056295;28;20182;-89
2021/08/11 08:04:37;;;;;;;21.80;9.45;;;17.40;86.50;;;;;;5056317;28;20175;-89
2021/08/11 08:07:03;;;;;;;14.88;9.52;;;17.50;86.10;;;;;;5056477;28;20171;-89
2021/08/11 08:09:29;;;;;;;18.63;10.98;;;17.70;85.30;;;;;;5056137;28;20186;-89
2021/08/11 08:11:54;;;;;;;14.60;9.32;;;17.70;86.20;;;;;;5073900;28;20544;-89
2021/08/11 08:14:20;;;;;;;12.50;8.63;;;17.70;85.10;;;;;;5056007;28;20659;-89
2021/08/11 08:16:46;;;;;;;13.27;8.98;;;17.50;83.90;;;;;;5074197;28;20588;-89
2021/08/11 08:19:11;;;;;;;11.48;8.20;;;17.60;85.30;;;;;;5056002;28;20190;-89
2021/08/11 08:21:37;;;;;;;15.55;8.55;;;17.80;86.00;;;;;;5055933;28;20238;-89
2021/08/11 08:24:03;;;;;;;15.52;8.88;;;17.90;84.20;;;;;;5055872;28;20643;-89
2021/08/11 08:26:29;;;;;;;14.20;7.30;;;18.00;85.10;;;;;;5073788;28;20175;-89
2021/08/11 08:28:54;;;;;;;11.15;7.30;;;18.00;83.20;;;;;;5055901;28;20179;-89
2021/08/11 08:31:20;;;;;;;12.73;7.85;;;18.00;83.50;;;;;;5073455;28;20241;-89
2021/08/11 08:33:46;;;;;;;12.10;7.00;;;18.10;82.30;;;;;;5055885;28;20171;-89
2021/08/11 08:36:11;;;;;;;11.07;6.55;;;18.20;83.80;;;;;;5073634;28;20564;-89
2021/08/11 08:38:37;;;;;;;13.07;6.57;;;18.20;83.80;;;;;;5054945;28;20172;-89
2021/08/11 08:41:03;;;;;;;7.40;5.45;;;18.30;81.20;;;;;;5073511;28;20183;-89
2021/08/11 08:43:28;;;;;;;10.88;6.55;;;18.30;80.70;;;;;;5055521;28;20669;-89
2021/08/11 08:45:54;;;;;;;11.52;6.82;;;18.20;81.30;;;;;;5055633;28;20171;-89
2021/08/11 08:48:20;;;;;;;11.85;6.90;;;18.10;80.10;;;;;;5055858;28;20261;-89
2021/08/11 08:50:49;;;;;;;15.50;7.15;;;18.30;82.70;;;;;;5055396;28;20694;-89
2021/08/11 08:53:21;;;;;;;14.70;5.63;;;18.50;82.20;;;;;;5055279;28;20290;-89
2021/08/11 08:55:47;;;;;;;10.88;6.45;;;18.60;80.50;;;;;;5073461;28;20609;-89
2021/08/11 08:58:13;;;;;;;11.45;6.35;;;18.70;82.00;;;;;;5055423;28;20203;-89
2021/08/11 09:00:39;;;;;;;8.82;6.63;;;18.90;82.70;;;;;;5073263;28;20678;-89
2021/08/11 09:03:05;;;;;;;9.82;5.50;;;18.80;80.20;;;;;;5055309;28;20643;-89
2021/08/11 09:05:31;;;;;;;9.80;5.40;;;18.60;79.40;;;;;;5073207;28;20543;-89
2021/08/11 09:07:57;;;;;;;7.88;5.00;;;18.50;79.90;;;;;;5055592;28;20175;-88
2021/08/11 09:10:29;;;;;;;8.00;4.82;;;18.80;78.80;;;;;;5055511;28;20195;-88
2021/08/11 09:13:05;;;;;;;11.02;6.10;;;18.90;79.40;;;;;;5055513;28;20701;-89
2021/08/11 09:15:46;;;;;;;7.05;5.20;;;19.20;78.70;;;;;;5055234;28;20246;-88
2021/08/11 09:18:15;;;;;;;8.50;4.60;;;19.40;76.00;;;;;;5055590;28;20163;-88
2021/08/11 09:21:03;;;;;;;8.63;5.43;;;19.10;76.30;;;;;;5055152;28;20233;-88
2021/08/11 09:23:36;;;;;;;10.93;5.30;;;19.10;78.30;;;;;;5055197;28;20175;-88
2021/08/11 09:26:04;;;;;;;6.65;4.50;;;19.30;79.00;;;;;;5055449;28;20171;-88
2021/08/11 09:28:32;;;;;;;6.30;3.88;;;19.20;77.30;;;;;;5073197;28;20502;-89
2021/08/11 09:30:58;;;;;;;7.53;4.45;;;19.10;78.60;;;;;;5072736;28;20736;-89
2021/08/11 09:33:25;;;;;;;7.97;4.50;;;19.20;78.50;;;;;;5096841;22;20231;-87
2021/08/11 09:35:52;;;;;;;7.28;3.90;;;19.20;79.00;;;;;;5055025;28;20638;-88
2021/08/11 09:38:18;;;;;;;10.68;5.28;;;19.20;77.50;;;;;;5055333;28;20179;-88
2021/08/11 09:40:45;;;;;;;6.38;4.20;;;19.10;76.60;;;;;;5056046;28;20179;-87
2021/08/11 09:43:15;;;;;;;8.00;4.60;;;19.00;78.00;;;;;;5054831;28;20671;-87
2021/08/11 09:45:49;;;;;;;8.90;5.20;;;19.10;78.80;;;;;;5055072;28;20214;-88
2021/08/11 09:48:20;;;;;;;8.48;4.40;;;19.20;77.70;;;;;;5073200;28;20669;-87
2021/08/11 09:50:59;;;;;;;11.45;4.85;;;19.40;77.00;;;;;;5075417;28;20648;-87
2021/08/11 09:53:28;;;;;;;8.57;5.05;;;19.20;77.90;;;;;;5058739;28;20210;-88
2021/08/11 09:56:00;;;;;;;7.25;4.68;;;19.30;78.90;;;;;;5076963;28;20168;-88
2021/08/11 09:58:26;;;;;;;6.63;4.45;;;19.20;77.70;;;;;;5058978;28;20168;-88
2021/08/11 10:00:52;;;;;;;7.65;4.60;;;19.20;77.80;;;;;;5076808;28;20171;-87
2021/08/11 10:03:18;;;;;;;8.57;4.70;;;19.20;77.00;;;;;;5076398;28;20194;-87
2021/08/11 10:05:43;;;;;;;9.02;5.32;;;19.40;77.40;;;;;;5058578;28;20176;-88
2021/08/11 10:08:09;;;;;;;10.77;5.20;;;19.40;76.70;;;;;;5058763;28;20172;-88
2021/08/11 10:10:45;;;;;;;8.40;4.75;;;19.60;77.30;;;;;;5058828;28;20182;-87
2021/08/11 10:13:12;;;;;;;12.07;5.75;;;19.80;79.50;;;;;;5058676;28;20289;-87
2021/08/11 10:15:38;;;;;;;7.18;4.40;;;19.90;77.90;;;;;;5058363;28;20186;-87
2021/08/11 10:18:04;;;;;;;5.38;4.22;;;19.80;75.00;;;;;;5058452;28;20167;-88
2021/08/11 10:20:30;;;;;;;9.98;4.78;;;19.70;76.50;;;;;;5058373;28;20206;-87
2021/08/11 10:22:56;;;;;;;11.70;4.95;;;19.60;75.40;;;;;;5058206;28;20199;-87
2021/08/11 10:25:22;;;;;;;7.82;4.63;;;19.70;75.60;;;;;;5058639;28;20182;-87
2021/08/11 10:27:48;;;;;;;6.85;4.03;;;20.20;76.10;;;;;;5076417;28;20246;-87
2021/08/11 10:30:15;;;;;;;10.48;3.30;;;20.30;74.10;;;;;;5058158;28;20179;-87
2021/08/11 10:32:41;;;;;;;7.68;3.45;;;20.30;72.40;;;;;;5058017;28;20246;-87
2021/08/11 10:35:08;;;;;;;10.45;3.80;;;20.20;71.60;;;;;;5058230;28;20772;-87
2021/08/11 10:37:35;;;;;;;5.93;3.92;;;20.20;72.20;;;;;;5057998;28;20203;-87
2021/08/11 10:40:01;;;;;;;9.77;3.40;;;20.50;71.80;;;;;;5057939;28;20242;-87
2021/08/11 10:42:27;;;;;;;8.77;3.72;;;20.60;68.70;;;;;;5057836;28;20191;-87
2021/08/11 10:45:02;;;;;;;8.68;4.40;;;20.80;72.90;;;;;;5057906;28;20529;-87
2021/08/11 10:47:32;;;;;;;8.70;5.20;;;20.90;71.90;;;;;;5057839;28;20209;-88
2021/08/11 10:50:00;;;;;;;9.43;4.25;;;20.90;71.50;;;;;;5058550;28;20183;-87
2021/08/11 10:52:26;;;;;;;8.30;4.32;;;21.20;69.00;;;;;;5057635;28;20210;-88
2021/08/11 10:55:00;;;;;;;10.75;4.05;;;20.80;70.10;;;;;;5057494;28;20547;-87
2021/08/11 10:57:35;;;;;;;6.97;4.47;;;21.00;71.60;;;;;;5057611;28;20606;-87
2021/08/11 11:00:01;;;;;;;7.18;3.83;;;21.10;68.60;;;;;;5075428;28;20167;-87
2021/08/11 11:02:42;;;;;;;7.93;3.70;;;20.90;71.20;;;;;;5074504;28;20207;-87
2021/08/11 11:05:14;;;;;;;5.30;3.55;;;21.20;71.90;;;;;;5057373;28;20189;-87
2021/08/11 11:07:40;;;;;;;5.93;3.80;;;21.10;69.80;;;;;;5057406;28;20198;-87
2021/08/11 11:10:38;;;;;;;10.15;4.47;;;20.80;70.90;;;;;;5075329;28;20233;-87
2021/08/11 11:13:36;;;;;;;4.88;4.32;;;20.80;71.30;;;;;;5025013;28;20214;-88
2021/08/11 11:16:02;;;;;;;8.05;4.15;;;20.80;72.10;;;;;;5059305;28;20190;-87
2021/08/11 11:18:28;;;;;;;6.30;4.03;;;21.20;73.30;;;;;;5057180;28;20179;-87
2021/08/11 11:20:57;;;;;;;8.10;3.65;;;21.20;72.50;;;;;;5057624;28;20179;-87
2021/08/11 11:23:32;;;;;;;7.00;4.10;;;21.50;67.50;;;;;;5057031;28;20187;-87
2021/08/11 11:26:13;;;;;;;5.28;3.35;;;21.20;69.70;;;;;;5057155;28;20254;-88
2021/08/11 11:29:02;;;;;;;6.65;3.30;;;21.40;66.80;;;;;;5075016;28;20230;-88
2021/08/11 11:31:55;;;;;;;8.52;3.30;;;21.70;67.60;;;;;;5074926;28;20210;-87
2021/08/11 11:34:28;;;;;;;7.00;3.60;;;21.60;64.80;;;;;;5074769;28;20716;-88
2021/08/11 11:36:57;;;;;;;5.72;3.22;;;21.50;66.00;;;;;;5057767;28;20163;-88
2021/08/11 11:39:24;;;;;;;5.90;3.50;;;21.80;67.00;;;;;;5056763;28;20167;-89
2021/08/11 11:42:08;;;;;;;5.05;3.28;;;22.20;68.10;;;;;;5057805;28;20182;-88
2021/08/11 11:44:59;;;;;;;7.50;3.47;;;22.10;64.60;;;;;;5056964;28;20249;-88
2021/08/11 11:47:40;;;;;;;9.68;4.00;;;21.80;66.00;;;;;;5074513;28;20568;-88
2021/08/11 11:50:21;;;;;;;4.75;3.33;;;22.00;66.80;;;;;;5074829;28;20171;-88
2021/08/11 11:52:52;;;;;;;10.43;3.50;;;22.10;65.40;;;;;;5074356;28;20206;-87
2021/08/11 11:55:31;;;;;;;4.35;2.95;;;22.00;65.40;;;;;;5074325;28;20181;-88
2021/08/11 11:58:07;;;;;;;4.97;3.30;;;22.40;66.90;;;;;;5056961;28;20183;-89
2021/08/11 12:00:33;;;;;;;7.28;3.83;;;23.00;67.00;;;;;;5074809;28;20163;-89
2021/08/11 12:02:59;;;;;;;5.47;3.00;;;22.50;63.20;;;;;;5074555;28;20191;-89
2021/08/11 12:05:25;;;;;;;4.90;3.13;;;22.30;63.80;;;;;;5074448;28;20171;-89
2021/08/11 12:07:51;;;;;;;5.45;3.40;;;22.40;65.10;;;;;;5074592;28;20174;-89
2021/08/11 12:10:27;;;;;;;5.28;2.88;;;22.30;64.70;;;;;;5056366;28;20265;-87
2021/08/11 12:13:04;;;;;;;3.95;2.75;;;22.80;62.50;;;;;;5055977;28;20584;-86
2021/08/11 12:15:35;;;;;;;7.72;2.90;;;22.60;62.80;;;;;;5056401;28;20688;-89
2021/08/11 12:18:24;;;;;;;5.55;3.38;;;22.70;62.00;;;;;;5074233;28;20170;-89
2021/08/11 12:20:53;;;;;;;4.43;3.25;;;22.50;64.10;;;;;;5074393;28;20694;-89
2021/08/11 12:23:22;;;;;;;5.53;3.28;;;22.50;63.80;;;;;;5074043;28;20202;-89
2021/08/11 12:25:53;;;;;;;5.00;3.50;;;22.70;64.60;;;;;;5073975;28;20189;-89
2021/08/11 12:28:35;;;;;;;6.53;3.28;;;22.70;64.20;;;;;;5074051;28;20163;-89
2021/08/11 12:31:12;;;;;;;5.95;3.28;;;22.50;65.30;;;;;;5073931;28;20234;-89
2021/08/11 12:33:42;;;;;;;5.40;3.33;;;22.40;62.50;;;;;;5055949;28;20242;-89
2021/08/11 12:36:13;;;;;;;6.40;3.15;;;22.60;64.50;;;;;;5056214;28;20233;-89
2021/08/11 12:38:41;;;;;;;4.40;3.17;;;22.80;63.70;;;;;;5074149;28;20167;-88
2021/08/11 12:41:19;;;;;;;3.30;2.63;;;22.80;64.40;;;;;;5056088;28;20201;-88